createdAt,value
2022-11-29T00:04:45.040Z,101660
2022-11-29T00:09:44.702Z,101660
2022-11-29T00:14:44.877Z,101670
2022-11-29T00:19:44.831Z,101670
2022-11-29T00:24:44.908Z,101670
2022-11-29T00:29:44.910Z,101670
2022-11-29T00:34:45.019Z,101660
2022-11-29T00:39:44.712Z,101670
2022-11-29T00:44:45.110Z,101680
2022-11-29T00:49:44.840Z,101680
2022-11-29T00:54:45.053Z,101690
2022-11-29T00:59:44.915Z,101690
2022-11-29T01:04:45.033Z,101690
2022-11-29T01:09:44.735Z,101700
2022-11-29T01:14:45.052Z,101700
2022-11-29T01:19:50.475Z,101700
2022-11-29T01:24:45.141Z,101710
2022-11-29T01:29:44.803Z,101710
2022-11-29T01:34:45.046Z,101720
2022-11-29T01:39:44.744Z,101720
2022-11-29T01:44:44.993Z,101720
2022-11-29T01:49:44.878Z,101720
2022-11-29T01:54:45.197Z,101720
2022-11-29T01:59:44.824Z,101730
2022-11-29T02:04:45.169Z,101730
2022-11-29T02:09:44.764Z,101740
2022-11-29T02:14:45.067Z,101750
2022-11-29T02:19:44.833Z,101750
2022-11-29T02:24:45.023Z,101750
2022-11-29T02:29:44.836Z,101750
2022-11-29T02:34:45.131Z,101750
2022-11-29T02:39:44.789Z,101750
2022-11-29T02:44:45.107Z,101760
2022-11-29T02:49:44.891Z,101760
2022-11-29T02:54:45.086Z,101760
2022-11-29T02:59:44.851Z,101760
2022-11-29T03:04:45.194Z,101760
2022-11-29T03:09:44.806Z,101770
2022-11-29T03:14:45.153Z,101770
2022-11-29T03:19:44.867Z,101770
2022-11-29T03:24:45.110Z,101770
2022-11-29T03:29:44.871Z,101770
2022-11-29T03:34:45.100Z,101780
2022-11-29T03:39:44.836Z,101780
2022-11-29T03:44:45.078Z,101790
2022-11-29T03:49:44.885Z,101800
2022-11-29T03:54:45.093Z,101800
2022-11-29T03:59:45.039Z,101800
2022-11-29T04:04:45.109Z,101800
2022-11-29T04:09:44.836Z,101810
2022-11-29T04:14:44.996Z,101810
2022-11-29T04:19:44.965Z,101830
2022-11-29T04:24:45.220Z,101830
2022-11-29T04:29:45.055Z,101830
2022-11-29T04:34:45.138Z,101820
2022-11-29T04:39:44.853Z,101820
2022-11-29T04:44:45.129Z,101830
2022-11-29T04:49:44.974Z,101840
2022-11-29T04:54:45.132Z,101840
2022-11-29T04:59:44.921Z,101840
2022-11-29T05:04:45.157Z,101850
2022-11-29T05:09:44.873Z,101850
2022-11-29T05:14:45.205Z,101860
2022-11-29T05:19:44.946Z,101870
2022-11-29T05:24:45.144Z,101880
2022-11-29T05:29:44.938Z,101890
2022-11-29T05:34:44.882Z,101890
2022-11-29T05:39:44.891Z,101900
2022-11-29T05:44:45.148Z,101900
2022-11-29T05:49:44.956Z,101900
2022-11-29T05:54:45.246Z,101900
2022-11-29T05:59:44.960Z,101900
2022-11-29T06:04:45.185Z,101910
2022-11-29T06:09:44.902Z,101920
2022-11-29T06:14:45.150Z,101920
2022-11-29T06:19:45.027Z,101930
2022-11-29T06:24:45.222Z,101930
2022-11-29T06:29:44.979Z,101930
2022-11-29T06:34:45.220Z,101940
2022-11-29T06:39:50.819Z,101950
2022-11-29T06:44:45.201Z,101950
2022-11-29T06:49:45.048Z,101960
2022-11-29T06:54:45.243Z,101960
2022-11-29T06:59:44.988Z,101970
2022-11-29T07:04:46.400Z,101970
2022-11-29T07:09:44.937Z,101970
2022-11-29T07:14:45.339Z,101980
2022-11-29T07:19:45.061Z,101990
2022-11-29T07:24:45.237Z,102000
2022-11-29T07:29:45.006Z,102000
2022-11-29T07:34:45.185Z,102010
2022-11-29T07:39:44.960Z,102020
2022-11-29T07:44:45.140Z,102020
2022-11-29T07:49:45.091Z,102030
2022-11-29T07:54:45.292Z,102030
2022-11-29T07:59:45.454Z,102040
2022-11-29T08:04:45.394Z,102040
2022-11-29T08:09:45.283Z,102040
2022-11-29T08:14:45.359Z,102040
2022-11-29T08:19:45.102Z,102050
2022-11-29T08:24:45.199Z,102060
2022-11-29T08:29:45.043Z,102050
2022-11-29T08:34:45.203Z,102060
2022-11-29T08:39:44.997Z,102060
2022-11-29T08:44:45.191Z,102070
2022-11-29T08:49:45.061Z,102070
2022-11-29T08:54:45.230Z,102070
2022-11-29T08:59:45.061Z,102080
2022-11-29T09:04:45.256Z,102090
2022-11-29T09:09:45.014Z,102090
2022-11-29T09:14:45.422Z,102090
2022-11-29T09:19:45.147Z,102090
2022-11-29T09:24:45.230Z,102090
2022-11-29T09:29:45.080Z,102100
2022-11-29T09:34:45.467Z,102110
2022-11-29T09:39:45.031Z,102110
2022-11-29T09:44:45.266Z,102120
2022-11-29T09:49:45.029Z,102130
2022-11-29T09:54:45.377Z,102130
2022-11-29T09:59:45.105Z,102130
2022-11-29T10:04:45.489Z,102130
2022-11-29T10:09:45.048Z,102130
2022-11-29T10:14:45.295Z,102130
2022-11-29T10:19:45.051Z,102130
2022-11-29T10:24:45.472Z,102130
2022-11-29T10:29:45.182Z,102130
2022-11-29T10:34:45.319Z,102140
2022-11-29T10:39:45.066Z,102140
2022-11-29T10:44:45.346Z,102130
2022-11-29T10:49:45.080Z,102130
2022-11-29T10:54:45.409Z,102130
2022-11-29T10:59:45.083Z,102130
2022-11-29T11:04:45.654Z,102130
2022-11-29T11:09:45.077Z,102140
2022-11-29T11:14:45.563Z,102140
2022-11-29T11:19:45.091Z,102140
2022-11-29T11:24:45.441Z,102140
2022-11-29T11:29:45.081Z,102150
2022-11-29T11:34:45.244Z,102140
2022-11-29T11:39:45.324Z,102140
2022-11-29T11:44:47.557Z,102140
2022-11-29T11:49:45.101Z,102140
2022-11-29T11:54:45.219Z,102150
2022-11-29T11:59:45.110Z,102150
2022-11-29T12:04:45.464Z,102150
2022-11-29T12:09:45.293Z,102160
2022-11-29T12:14:45.345Z,102160
2022-11-29T12:19:45.130Z,102160
2022-11-29T12:24:45.611Z,102170
2022-11-29T12:29:45.125Z,102180
2022-11-29T12:34:45.530Z,102180
2022-11-29T12:39:45.247Z,102180
2022-11-29T12:44:45.512Z,102180
2022-11-29T12:49:45.136Z,102180
2022-11-29T12:54:45.521Z,102190
2022-11-29T12:59:45.134Z,102200
2022-11-29T13:04:45.569Z,102200
2022-11-29T13:09:45.908Z,102190
2022-11-29T13:14:45.182Z,102190
2022-11-29T13:19:45.150Z,102190
2022-11-29T13:24:45.459Z,102190
2022-11-29T13:29:45.153Z,102190
2022-11-29T13:34:45.496Z,102190
2022-11-29T13:39:45.343Z,102200
2022-11-29T13:44:45.493Z,102200
2022-11-29T13:49:45.170Z,102200
2022-11-29T13:54:45.397Z,102200
2022-11-29T13:59:47.622Z,102210
2022-11-29T14:04:45.539Z,102200
2022-11-29T14:09:45.310Z,102200
2022-11-29T14:14:45.495Z,102200
2022-11-29T14:19:45.190Z,102210
2022-11-29T14:24:45.368Z,102220
2022-11-29T14:29:45.197Z,102220
2022-11-29T14:34:45.477Z,102220
2022-11-29T14:39:45.320Z,102220
2022-11-29T14:44:45.514Z,102220
2022-11-29T14:49:45.215Z,102230
2022-11-29T14:54:50.661Z,102230
2022-11-29T14:59:45.210Z,102230
2022-11-29T15:04:45.455Z,102230
2022-11-29T15:09:45.395Z,102240
2022-11-29T15:14:45.649Z,102240
2022-11-29T15:19:45.232Z,102240
2022-11-29T15:24:45.497Z,102250
2022-11-29T15:29:45.224Z,102250
2022-11-29T15:34:45.635Z,102250
2022-11-29T15:39:45.482Z,102260
2022-11-29T15:44:45.538Z,102260
2022-11-29T15:49:45.245Z,102260
2022-11-29T15:54:45.845Z,102260
2022-11-29T15:59:45.251Z,102260
2022-11-29T16:04:47.039Z,102260
2022-11-29T16:09:45.426Z,102250
2022-11-29T16:14:45.597Z,102260
2022-11-29T16:19:45.259Z,102260
2022-11-29T16:24:45.387Z,102260
2022-11-29T16:29:45.275Z,102270
2022-11-29T16:34:45.616Z,102260
2022-11-29T16:39:45.447Z,102260
2022-11-29T16:44:45.626Z,102260
2022-11-29T16:49:45.276Z,102270
2022-11-29T16:54:45.640Z,102270
2022-11-29T16:59:45.290Z,102270
2022-11-29T17:04:45.585Z,102280
2022-11-29T17:09:45.462Z,102280
2022-11-29T17:14:45.582Z,102280
2022-11-29T17:19:45.290Z,102280
2022-11-29T17:24:48.293Z,102290
2022-11-29T17:29:45.298Z,102290
2022-11-29T17:34:45.593Z,102290
2022-11-29T17:39:45.901Z,102290
2022-11-29T17:44:45.305Z,102290
2022-11-29T17:49:45.607Z,102300
2022-11-29T17:54:45.307Z,102300
2022-11-29T17:59:45.643Z,102310
2022-11-29T18:04:45.320Z,102310
2022-11-29T18:09:45.912Z,102310
2022-11-29T18:14:45.322Z,102320
2022-11-29T18:19:45.613Z,102320
2022-11-29T18:24:45.326Z,102330
2022-11-29T18:29:45.337Z,102330
2022-11-29T18:38:14.761Z,102340
2022-11-29T18:42:55.515Z,102340
2022-11-29T18:47:55.316Z,102340
2022-11-29T18:52:55.309Z,102350
2022-11-29T18:57:55.309Z,102350
2022-11-29T19:02:55.353Z,102350
2022-11-29T19:07:55.390Z,102350
2022-11-29T19:12:55.619Z,102370
2022-11-29T19:17:55.324Z,102370
2022-11-29T19:23:00.318Z,102370
2022-11-29T19:27:55.344Z,102360
2022-11-29T19:32:55.332Z,102360
2022-11-29T19:37:55.335Z,102370
2022-11-29T19:42:55.818Z,102370
2022-11-29T19:47:55.343Z,102370
2022-11-29T19:52:55.341Z,102380
2022-11-29T19:57:55.345Z,102380
2022-11-29T20:02:55.427Z,102390
2022-11-29T20:07:55.416Z,102390
2022-11-29T20:12:55.478Z,102390
2022-11-29T20:17:55.365Z,102390
2022-11-29T20:22:55.361Z,102400
2022-11-29T20:27:55.371Z,102400
2022-11-29T20:32:55.365Z,102410
2022-11-29T20:37:55.369Z,102410
2022-11-29T20:42:55.499Z,102410
2022-11-29T20:47:55.384Z,102420
2022-11-29T20:52:55.376Z,102420
2022-11-29T20:57:55.400Z,102420
2022-11-29T21:02:55.383Z,102430
2022-11-29T21:07:55.445Z,102440
2022-11-29T21:12:55.517Z,102440
2022-11-29T21:17:55.399Z,102450
2022-11-29T21:22:55.391Z,102450
2022-11-29T21:27:55.397Z,102460
2022-11-29T21:32:55.405Z,102460
2022-11-29T21:37:55.416Z,102460
2022-11-29T21:42:55.535Z,102460
2022-11-29T21:47:55.410Z,102470
2022-11-29T21:52:55.409Z,102470
2022-11-29T21:57:55.414Z,102470
2022-11-29T22:02:55.469Z,102480
2022-11-29T22:07:55.461Z,102480
2022-11-29T22:12:55.618Z,102490
2022-11-29T22:17:55.429Z,102490
2022-11-29T22:22:58.679Z,102500
2022-11-29T22:27:55.438Z,102490
2022-11-29T22:32:55.440Z,102500
2022-11-29T22:37:55.433Z,102490
2022-11-29T22:42:55.618Z,102490
2022-11-29T22:47:55.447Z,102480
2022-11-29T22:52:55.457Z,102480
2022-11-29T22:57:55.453Z,102490
2022-11-29T23:02:55.459Z,102490
2022-11-29T23:07:55.533Z,102500
2022-11-29T23:12:55.650Z,102490
2022-11-29T23:17:55.463Z,102500
2022-11-29T23:22:55.458Z,102510
2022-11-29T23:27:55.477Z,102510
2022-11-29T23:32:55.470Z,102510
2022-11-29T23:37:55.477Z,102510
2022-11-29T23:42:55.953Z,102510
2022-11-29T23:47:55.475Z,102500
2022-11-29T23:52:55.482Z,102510
2022-11-29T23:57:55.487Z,102510
